createdAt,value
2019-03-13T00:00:45.348Z,100077.91
2019-03-13T00:03:15.087Z,100091.00
2019-03-13T00:05:44.326Z,100084.20
2019-03-13T00:08:13.509Z,100071.32
2019-03-13T00:10:42.719Z,100071.25
2019-03-13T00:13:11.950Z,100057.29
2019-03-13T00:15:41.125Z,100054.25
2019-03-13T00:18:10.311Z,100060.67
2019-03-13T00:20:39.492Z,100061.86
2019-03-13T00:23:08.860Z,100053.80
2019-03-13T00:25:38.041Z,100048.93
2019-03-13T00:28:07.233Z,100046.59
2019-03-13T00:30:36.490Z,100046.02
2019-03-13T00:33:05.656Z,100047.97
2019-03-13T00:35:34.845Z,100037.94
2019-03-13T00:38:04.053Z,100041.79
2019-03-13T00:40:33.230Z,100043.67
2019-03-13T00:43:02.423Z,100038.27
2019-03-13T00:45:31.595Z,100032.78
2019-03-13T00:48:00.791Z,100023.36
2019-03-13T00:50:34.147Z,100031.63
2019-03-13T00:53:03.319Z,100026.72
2019-03-13T00:55:32.488Z,100034.05
2019-03-13T00:58:01.668Z,100046.38
2019-03-13T01:00:50.644Z,100050.37
2019-03-13T01:03:33.191Z,100052.39
2019-03-13T01:06:04.065Z,100054.20
2019-03-13T01:08:33.246Z,100052.15
2019-03-13T01:11:02.419Z,100041.91
2019-03-13T01:13:31.591Z,100046.59
2019-03-13T01:16:01.235Z,100042.94
2019-03-13T01:18:30.437Z,100033.41
2019-03-13T01:20:59.612Z,100032.42
2019-03-13T01:23:28.790Z,100029.62
2019-03-13T01:25:57.964Z,100018.86
2019-03-13T01:28:27.206Z,100018.56
2019-03-13T01:31:07.001Z,100026.55
2019-03-13T01:33:36.277Z,100026.07
2019-03-13T01:36:07.004Z,100024.81
2019-03-13T01:38:36.184Z,100033.44
2019-03-13T01:41:05.351Z,100026.55
2019-03-13T01:43:34.575Z,100015.20
2019-03-13T01:46:03.756Z,100015.99
2019-03-13T01:48:32.942Z,100014.88
2019-03-13T01:51:02.132Z,100015.45
2019-03-13T01:53:31.304Z,100023.44
2019-03-13T01:56:00.500Z,100018.89
2019-03-13T01:58:29.674Z,100012.14
2019-03-13T02:00:58.847Z,100031.97
2019-03-13T02:03:28.029Z,100021.32
2019-03-13T02:05:57.199Z,100008.55
2019-03-13T02:08:26.377Z,100001.20
2019-03-13T02:10:55.628Z,100004.65
2019-03-13T02:13:24.873Z,99990.38
2019-03-13T02:15:54.116Z,99998.60
2019-03-13T02:18:41.599Z,99984.84
2019-03-13T02:21:10.792Z,100004.13
2019-03-13T02:23:39.971Z,100010.31
2019-03-13T02:26:09.146Z,100002.84
2019-03-13T02:28:38.387Z,100008.58
2019-03-13T02:31:07.564Z,100001.92
2019-03-13T02:33:36.724Z,99998.78
2019-03-13T02:36:05.962Z,100012.65
2019-03-13T02:38:35.147Z,99990.96
2019-03-13T02:41:04.316Z,99989.70
2019-03-13T02:43:33.507Z,99989.08
2019-03-13T02:46:02.685Z,99988.60
2019-03-13T02:48:31.898Z,99993.00
2019-03-13T02:51:01.080Z,99984.75
2019-03-13T02:53:30.263Z,99975.35
2019-03-13T02:55:59.441Z,99982.09
2019-03-13T02:58:28.678Z,99975.50
2019-03-13T03:01:16.042Z,99976.39
2019-03-13T03:03:46.862Z,99978.16
2019-03-13T03:06:16.070Z,99956.56
2019-03-13T03:08:45.304Z,99971.13
2019-03-13T03:11:14.490Z,99970.80
2019-03-13T03:13:43.667Z,99957.03
2019-03-13T03:16:12.839Z,99964.95
2019-03-13T03:18:42.076Z,99959.99
2019-03-13T03:21:11.243Z,99961.95
2019-03-13T03:23:44.870Z,99962.43
2019-03-13T03:26:11.284Z,99955.63
2019-03-13T03:28:58.452Z,99941.98
2019-03-13T03:31:28.335Z,99943.61
2019-03-13T03:34:02.381Z,99954.53
2019-03-13T03:36:32.006Z,99949.50
2019-03-13T03:39:01.186Z,99951.61
2019-03-13T03:41:30.427Z,99942.91
2019-03-13T03:43:59.678Z,99938.77
2019-03-13T03:46:28.878Z,99946.13
2019-03-13T03:48:58.327Z,99939.40
2019-03-13T03:51:27.525Z,99938.44
2019-03-13T03:53:56.716Z,99932.33
2019-03-13T03:56:25.927Z,99924.11
2019-03-13T03:58:55.168Z,99924.97
2019-03-13T04:01:24.354Z,99920.97
2019-03-13T04:03:53.536Z,99931.07
2019-03-13T04:06:23.251Z,99915.31
2019-03-13T04:08:52.461Z,99920.27
2019-03-13T04:11:21.631Z,99936.33
2019-03-13T04:13:50.814Z,99932.95
2019-03-13T04:16:20.001Z,99934.80
2019-03-13T04:18:49.178Z,99922.89
2019-03-13T04:21:18.372Z,99928.70
2019-03-13T04:23:47.821Z,99925.55
2019-03-13T04:26:17.058Z,99914.16
2019-03-13T04:28:46.240Z,99908.72
2019-03-13T04:31:15.408Z,99929.96
2019-03-13T04:33:44.616Z,99928.62
2019-03-13T04:36:13.778Z,99924.26
2019-03-13T04:38:43.006Z,99927.48
2019-03-13T04:41:12.224Z,99914.53
2019-03-13T04:43:41.363Z,99925.82
2019-03-13T04:46:10.564Z,99906.31
2019-03-13T04:48:39.729Z,99911.30
2019-03-13T04:51:08.903Z,99921.82
2019-03-13T04:53:38.111Z,99927.23
2019-03-13T04:56:07.273Z,99933.52
2019-03-13T04:58:36.439Z,99939.77
2019-03-13T05:01:05.616Z,99922.52
2019-03-13T05:03:35.647Z,99927.48
2019-03-13T05:06:06.795Z,99930.67
2019-03-13T05:08:44.982Z,99929.74
2019-03-13T05:11:09.772Z,99940.33
2019-03-13T05:13:38.959Z,99937.10
2019-03-13T05:16:08.115Z,99930.84
2019-03-13T05:18:37.303Z,99909.60
2019-03-13T05:21:06.476Z,99929.74
2019-03-13T05:23:35.642Z,99932.18
2019-03-13T05:26:04.989Z,99910.37
2019-03-13T05:28:34.155Z,99914.59
2019-03-13T05:31:03.378Z,99918.19
2019-03-13T05:33:32.559Z,99921.66
2019-03-13T05:36:01.727Z,99913.73
2019-03-13T05:38:30.912Z,99929.80
2019-03-13T05:41:18.044Z,99926.36
2019-03-13T05:44:04.935Z,99926.81
2019-03-13T05:46:34.102Z,99916.62
2019-03-13T05:49:03.307Z,99930.88
2019-03-13T05:51:32.473Z,99933.06
2019-03-13T05:54:01.630Z,99913.95
2019-03-13T05:56:30.805Z,99930.50
2019-03-13T05:58:59.981Z,99923.91
2019-03-13T06:01:29.171Z,99931.58
2019-03-13T06:03:58.339Z,99912.55
2019-03-13T06:06:27.539Z,99922.24
2019-03-13T06:08:56.704Z,99902.39
2019-03-13T06:11:25.882Z,99915.91
2019-03-13T06:13:55.070Z,99910.79
2019-03-13T06:16:24.257Z,99905.11
2019-03-13T06:18:53.458Z,99897.27
2019-03-13T06:21:22.652Z,99899.56
2019-03-13T06:23:51.821Z,99899.94
2019-03-13T06:26:21.059Z,99910.98
2019-03-13T06:28:50.231Z,99907.30
2019-03-13T06:31:19.504Z,99904.61
2019-03-13T06:33:48.668Z,99886.91
2019-03-13T06:36:17.833Z,99909.73
2019-03-13T06:38:47.007Z,99899.55
2019-03-13T06:41:17.564Z,99903.70
2019-03-13T06:43:46.906Z,99892.40
2019-03-13T06:46:16.082Z,99900.23
2019-03-13T06:48:45.260Z,99888.77
2019-03-13T06:51:14.451Z,99912.05
2019-03-13T06:53:43.681Z,99890.72
2019-03-13T06:56:12.883Z,99897.06
2019-03-13T06:58:46.704Z,99881.14
2019-03-13T07:01:17.575Z,99890.40
2019-03-13T07:04:03.465Z,99891.73
2019-03-13T07:06:37.029Z,99883.73
2019-03-13T07:09:26.264Z,99887.73
2019-03-13T07:12:13.209Z,99890.20
2019-03-13T07:14:49.714Z,99904.80
2019-03-13T07:17:23.344Z,99889.28
2019-03-13T07:20:10.532Z,99883.17
2019-03-13T07:22:44.001Z,99870.69
2019-03-13T07:25:32.844Z,99888.88
2019-03-13T07:28:06.354Z,99898.77
2019-03-13T07:30:39.622Z,99879.89
2019-03-13T07:33:28.263Z,99906.93
2019-03-13T07:36:01.658Z,99885.44
2019-03-13T07:38:32.500Z,99895.25
2019-03-13T07:41:05.911Z,99897.70
2019-03-13T07:43:39.351Z,99900.88
2019-03-13T07:46:26.442Z,99895.95
2019-03-13T07:49:06.220Z,99908.59
2019-03-13T07:51:37.016Z,99898.45
2019-03-13T07:54:07.847Z,99908.37
2019-03-13T07:56:47.478Z,99904.77
2019-03-13T07:59:36.591Z,99906.34
2019-03-13T08:02:10.246Z,99914.27
2019-03-13T08:04:43.580Z,99898.09
2019-03-13T08:07:14.433Z,99904.37
2019-03-13T08:10:03.293Z,99915.69
2019-03-13T08:12:34.141Z,99905.14
2019-03-13T08:15:07.983Z,99907.20
2019-03-13T08:17:41.786Z,99916.30
2019-03-13T08:20:12.664Z,99917.92
2019-03-13T08:22:49.463Z,99921.98
2019-03-13T08:25:22.788Z,99922.11
2019-03-13T08:27:53.608Z,99923.52
2019-03-13T08:30:24.438Z,99909.55
2019-03-13T08:33:07.461Z,99902.19
2019-03-13T08:35:50.330Z,99916.38
2019-03-13T08:38:21.168Z,99922.23
2019-03-13T08:41:08.119Z,99919.89
2019-03-13T08:43:38.946Z,99936.46
2019-03-13T08:46:09.748Z,99922.97
2019-03-13T08:48:52.542Z,99922.69
2019-03-13T08:51:23.370Z,99917.11
2019-03-13T08:54:10.601Z,99925.36
2019-03-13T08:56:56.126Z,99924.34
2019-03-13T08:59:29.443Z,99911.25
2019-03-13T09:02:00.254Z,99906.23
2019-03-13T09:04:46.206Z,99901.75
2019-03-13T09:07:35.082Z,99908.34
2019-03-13T09:10:16.777Z,99907.56
2019-03-13T09:13:05.682Z,99903.33
2019-03-13T09:15:36.627Z,99894.78
2019-03-13T09:18:10.074Z,99872.14
2019-03-13T09:20:46.799Z,99886.86
2019-03-13T09:23:23.214Z,99894.87
2019-03-13T09:25:56.813Z,99905.05
2019-03-13T09:28:33.408Z,99895.67
2019-03-13T09:31:04.315Z,99887.11
2019-03-13T09:33:46.995Z,99874.94
2019-03-13T09:36:20.667Z,99883.84
2019-03-13T09:39:00.140Z,99882.91
2019-03-13T09:41:36.429Z,99884.88
2019-03-13T09:44:07.278Z,99879.50
2019-03-13T09:46:40.816Z,99858.38
2019-03-13T09:49:28.590Z,99873.19
2019-03-13T09:51:59.428Z,99887.78
2019-03-13T09:54:32.714Z,99877.75
2019-03-13T09:57:03.557Z,99878.77
2019-03-13T09:59:50.377Z,99889.06
2019-03-13T10:02:22.700Z,99881.84
2019-03-13T10:05:11.539Z,99868.50
2019-03-13T10:08:00.318Z,99861.43
2019-03-13T10:10:39.996Z,99883.03
2019-03-13T10:13:26.049Z,99859.76
2019-03-13T10:16:02.605Z,99867.97
2019-03-13T10:18:33.797Z,99866.16
2019-03-13T10:21:04.605Z,99858.20
2019-03-13T10:23:35.826Z,99876.27
2019-03-13T10:26:06.626Z,99872.70
2019-03-13T10:28:37.514Z,99872.67
2019-03-13T10:31:17.442Z,99873.53
2019-03-13T10:33:50.948Z,99874.45
2019-03-13T10:36:30.694Z,99863.50
2019-03-13T10:39:04.274Z,99878.09
2019-03-13T10:41:43.984Z,99887.11
2019-03-13T10:44:32.918Z,99888.36
2019-03-13T10:47:19.748Z,99885.53
2019-03-13T10:49:56.748Z,99902.95
2019-03-13T10:52:27.563Z,99912.02
2019-03-13T10:54:58.361Z,99904.50
2019-03-13T10:57:34.986Z,99910.68
2019-03-13T11:00:11.352Z,99901.49
2019-03-13T11:03:00.398Z,99918.61
2019-03-13T11:05:31.206Z,99927.91
2019-03-13T11:08:07.737Z,99923.14
2019-03-13T11:10:38.557Z,99925.00
2019-03-13T11:13:24.379Z,99927.67
2019-03-13T11:15:57.814Z,99929.81
2019-03-13T11:18:55.845Z,99943.70
2019-03-13T11:21:35.283Z,99938.23
2019-03-13T11:24:06.267Z,99940.13
2019-03-13T11:26:40.765Z,99931.31
2019-03-13T11:29:11.594Z,99935.97
2019-03-13T11:31:58.515Z,99940.37
2019-03-13T11:34:47.533Z,99956.40
2019-03-13T11:37:21.355Z,99950.49
2019-03-13T11:40:04.012Z,99947.48
2019-03-13T11:42:46.497Z,99956.31
2019-03-13T11:45:17.489Z,99937.14
2019-03-13T11:47:51.181Z,99955.87
2019-03-13T11:50:27.513Z,99957.92
2019-03-13T11:53:00.847Z,99955.27
2019-03-13T11:55:48.169Z,99947.00
2019-03-13T11:58:19.164Z,99951.50
2019-03-13T12:00:50.042Z,99961.61
2019-03-13T12:03:37.279Z,99954.57
2019-03-13T12:06:17.242Z,99949.03
2019-03-13T12:08:50.798Z,99952.27
2019-03-13T12:11:21.615Z,99958.83
2019-03-13T12:13:52.457Z,99955.14
2019-03-13T12:16:39.346Z,99963.15
2019-03-13T12:19:12.728Z,99960.08
2019-03-13T12:21:43.554Z,99953.59
2019-03-13T12:24:14.410Z,99960.83
2019-03-13T12:26:45.503Z,99960.83
2019-03-13T12:29:31.534Z,99960.41
2019-03-13T12:32:18.358Z,99969.94
2019-03-13T12:35:05.251Z,99983.28
2019-03-13T12:37:47.903Z,99966.75
2019-03-13T12:40:35.026Z,99988.25
2019-03-13T12:43:20.830Z,99968.48
2019-03-13T12:46:00.622Z,99957.88
2019-03-13T12:48:49.635Z,99973.88
2019-03-13T12:51:20.459Z,99980.30
2019-03-13T12:54:03.593Z,99972.73
2019-03-13T12:56:34.446Z,99980.73
2019-03-13T12:59:05.252Z,99974.47
2019-03-13T13:01:41.783Z,99973.73
2019-03-13T13:04:27.730Z,99986.78
2019-03-13T13:07:10.639Z,99988.57
2019-03-13T13:09:57.679Z,100000.39
2019-03-13T13:12:44.645Z,99993.37
2019-03-13T13:15:15.608Z,99994.00
2019-03-13T13:17:46.428Z,99985.62
2019-03-13T13:20:15.676Z,99983.11
2019-03-13T13:22:44.856Z,99996.14
2019-03-13T13:25:14.137Z,99993.29
2019-03-13T13:27:43.456Z,100006.51
2019-03-13T13:30:15.386Z,100006.51
2019-03-13T13:32:44.632Z,100011.75
2019-03-13T13:35:13.799Z,100007.70
2019-03-13T13:37:43.102Z,100007.70
2019-03-13T13:40:14.917Z,100009.32
2019-03-13T13:42:44.095Z,100018.83
2019-03-13T13:45:40.613Z,100020.69
2019-03-13T13:48:09.819Z,100011.62
2019-03-13T13:50:39.018Z,100022.80
2019-03-13T13:53:08.206Z,100026.22
2019-03-13T13:55:37.390Z,100008.15
2019-03-13T13:58:06.576Z,100018.95
2019-03-13T14:00:35.765Z,100031.95
2019-03-13T14:03:04.970Z,100030.96
2019-03-13T14:05:34.154Z,100040.78
2019-03-13T14:08:03.326Z,100041.48
2019-03-13T14:10:32.499Z,100041.20
2019-03-13T14:13:01.754Z,100042.45
2019-03-13T14:15:30.948Z,100059.55
2019-03-13T14:18:00.472Z,100064.52
2019-03-13T14:20:29.688Z,100073.80
2019-03-13T14:22:58.888Z,100076.19
2019-03-13T14:25:28.055Z,100076.19
2019-03-13T14:27:57.298Z,100076.78
2019-03-13T14:30:26.449Z,100076.78
2019-03-13T14:32:55.632Z,100060.00
2019-03-13T14:35:24.808Z,100084.37
2019-03-13T14:37:54.005Z,100099.30
2019-03-13T14:40:23.284Z,100075.47
2019-03-13T14:42:52.535Z,100100.88
2019-03-13T14:45:21.978Z,100100.88
2019-03-13T14:47:51.158Z,100108.70
2019-03-13T14:50:21.497Z,100119.17
2019-03-13T14:52:50.762Z,100119.17
2019-03-13T14:55:20.003Z,100133.80
2019-03-13T14:57:49.182Z,100133.80
2019-03-13T15:00:22.700Z,100129.98
2019-03-13T15:03:10.243Z,100124.63
2019-03-13T15:05:39.499Z,100140.23
2019-03-13T15:08:08.691Z,100135.81
2019-03-13T15:10:37.894Z,100135.81
2019-03-13T15:13:09.619Z,100140.94
2019-03-13T15:15:38.804Z,100148.27
2019-03-13T15:18:07.989Z,100141.05
2019-03-13T15:20:37.205Z,100149.44
2019-03-13T15:23:07.760Z,100149.44
2019-03-13T15:25:37.120Z,100144.66
2019-03-13T15:28:06.309Z,100137.16
2019-03-13T15:30:35.492Z,100151.58
2019-03-13T15:33:04.792Z,100160.66
2019-03-13T15:35:33.952Z,100156.81
2019-03-13T15:38:03.224Z,100156.81
2019-03-13T15:40:32.408Z,100168.00
2019-03-13T15:43:01.614Z,100172.20
2019-03-13T15:45:32.636Z,100172.20
2019-03-13T15:48:01.833Z,100197.05
2019-03-13T15:50:31.030Z,100191.12
2019-03-13T15:53:00.292Z,100182.14
2019-03-13T15:55:29.484Z,100182.14
2019-03-13T15:57:58.662Z,100206.45
2019-03-13T16:00:29.061Z,100206.09
2019-03-13T16:02:58.316Z,100220.97
2019-03-13T16:05:27.604Z,100219.71
2019-03-13T16:07:56.944Z,100216.69
2019-03-13T16:10:26.337Z,100245.11
2019-03-13T16:12:57.160Z,100245.11
2019-03-13T16:15:37.872Z,100260.66
2019-03-13T16:18:07.184Z,100247.70
2019-03-13T16:20:36.368Z,100267.11
2019-03-13T16:23:05.708Z,100275.55
2019-03-13T16:25:34.909Z,100271.14
2019-03-13T16:28:04.157Z,100274.42
2019-03-13T16:30:46.631Z,100285.04
2019-03-13T16:33:15.814Z,100277.12
2019-03-13T16:35:45.016Z,100294.44
2019-03-13T16:38:14.187Z,100294.44
2019-03-13T16:40:43.434Z,100287.87
2019-03-13T16:43:12.630Z,100300.34
2019-03-13T16:45:41.804Z,100299.27
2019-03-13T16:48:10.976Z,100307.58
2019-03-13T16:50:40.162Z,100303.34
2019-03-13T16:53:09.340Z,100314.33
2019-03-13T16:55:38.531Z,100310.81
2019-03-13T16:58:07.711Z,100315.52
2019-03-13T17:00:37.236Z,100321.42
2019-03-13T17:03:06.412Z,100321.97
2019-03-13T17:05:35.597Z,100329.80
2019-03-13T17:08:04.778Z,100334.37
2019-03-13T17:10:52.212Z,100339.79
2019-03-13T17:13:21.397Z,100352.44
2019-03-13T17:15:50.575Z,100358.12
2019-03-13T17:18:19.782Z,100356.22
2019-03-13T17:20:48.976Z,100371.00
2019-03-13T17:23:18.181Z,100354.26
2019-03-13T17:25:47.358Z,100376.98
2019-03-13T17:28:16.535Z,100377.83
2019-03-13T17:30:45.727Z,100380.03
2019-03-13T17:33:14.898Z,100369.82
2019-03-13T17:35:44.111Z,100379.24
2019-03-13T17:38:13.267Z,100385.61
2019-03-13T17:40:42.442Z,100397.94
2019-03-13T17:43:11.691Z,100400.39
2019-03-13T17:45:40.867Z,100402.28
2019-03-13T17:48:10.078Z,100409.97
2019-03-13T17:50:39.275Z,100407.69
2019-03-13T17:53:08.462Z,100409.74
2019-03-13T17:55:37.612Z,100412.78
2019-03-13T17:58:06.787Z,100421.35
2019-03-13T18:00:48.105Z,100437.30
2019-03-13T18:03:17.446Z,100434.70
2019-03-13T18:05:46.644Z,100447.06
2019-03-13T18:08:15.884Z,100454.44
2019-03-13T18:10:45.187Z,100455.91
2019-03-13T18:13:14.442Z,100463.85
2019-03-13T18:15:43.786Z,100470.28
2019-03-13T18:18:12.975Z,100487.03
2019-03-13T18:20:42.190Z,100492.02
2019-03-13T18:23:11.383Z,100492.30
2019-03-13T18:25:40.574Z,100492.30
2019-03-13T18:28:09.764Z,100504.94
2019-03-13T18:30:39.032Z,100511.62
2019-03-13T18:33:08.230Z,100506.41
2019-03-13T18:35:37.414Z,100501.55
2019-03-13T18:38:06.582Z,100505.39
2019-03-13T18:40:35.789Z,100515.62
2019-03-13T18:43:05.046Z,100524.89
2019-03-13T18:45:35.493Z,100528.79
2019-03-13T18:48:04.811Z,100533.14
2019-03-13T18:50:34.065Z,100537.41
2019-03-13T18:53:03.346Z,100537.03
2019-03-13T18:55:34.443Z,100541.22
2019-03-13T18:58:03.715Z,100552.34
2019-03-13T19:00:37.586Z,100547.61
2019-03-13T19:03:24.605Z,100552.88
2019-03-13T19:06:11.993Z,100551.10
2019-03-13T19:08:41.239Z,100558.03
2019-03-13T19:11:10.377Z,100570.77
2019-03-13T19:13:39.567Z,100569.50
2019-03-13T19:16:08.749Z,100573.44
2019-03-13T19:18:37.917Z,100576.22
2019-03-13T19:21:07.121Z,100581.58
2019-03-13T19:23:36.301Z,100590.19
2019-03-13T19:26:05.508Z,100587.59
2019-03-13T19:28:34.694Z,100600.13
2019-03-13T19:31:03.958Z,100592.99
2019-03-13T19:33:33.150Z,100601.12
2019-03-13T19:36:02.326Z,100604.39
2019-03-13T19:38:31.500Z,100616.41
2019-03-13T19:41:00.686Z,100624.41
2019-03-13T19:43:29.897Z,100624.41
2019-03-13T19:45:59.144Z,100599.16
2019-03-13T19:48:28.420Z,100582.41
2019-03-13T19:50:57.625Z,100606.02
2019-03-13T19:53:26.802Z,100620.70
2019-03-13T19:55:56.000Z,100623.70
2019-03-13T19:58:25.166Z,100623.86
2019-03-13T20:00:54.512Z,100630.05
2019-03-13T20:03:23.694Z,100630.84
2019-03-13T20:05:52.893Z,100637.08
2019-03-13T20:08:22.119Z,100637.02
2019-03-13T20:10:51.389Z,100637.33
2019-03-13T20:13:20.567Z,100634.59
2019-03-13T20:15:49.816Z,100638.89
2019-03-13T20:18:19.082Z,100645.21
2019-03-13T20:20:48.237Z,100660.75
2019-03-13T20:23:18.276Z,100657.73
2019-03-13T20:25:47.461Z,100678.36
2019-03-13T20:28:17.506Z,100671.71
2019-03-13T20:30:46.676Z,100677.58
2019-03-13T20:33:15.878Z,100678.03
2019-03-13T20:35:45.058Z,100673.97
2019-03-13T20:38:14.227Z,100682.77
2019-03-13T20:40:43.423Z,100683.31
2019-03-13T20:43:12.633Z,100686.66
2019-03-13T20:45:41.825Z,100682.91
2019-03-13T20:48:11.163Z,100683.03
2019-03-13T20:50:40.350Z,100691.33
2019-03-13T20:53:09.533Z,100688.69
2019-03-13T20:55:38.636Z,100688.91
2019-03-13T20:58:07.855Z,100691.99
2019-03-13T21:00:37.116Z,100694.50
2019-03-13T21:03:06.430Z,100705.54
2019-03-13T21:05:35.592Z,100688.63
2019-03-13T21:08:04.864Z,100704.27
2019-03-13T21:10:34.087Z,100713.58
2019-03-13T21:13:03.309Z,100719.05
2019-03-13T21:15:32.544Z,100719.05
2019-03-13T21:18:01.715Z,100722.39
2019-03-13T21:20:30.985Z,100722.55
2019-03-13T21:23:00.171Z,100724.27
2019-03-13T21:25:29.351Z,100732.37
2019-03-13T21:27:59.665Z,100737.23
2019-03-13T21:30:29.413Z,100733.17
2019-03-13T21:32:58.669Z,100730.94
2019-03-13T21:35:27.848Z,100730.27
2019-03-13T21:37:57.085Z,100730.94
2019-03-13T21:40:32.231Z,100737.91
2019-03-13T21:43:00.132Z,100741.63
2019-03-13T21:45:40.648Z,100740.64
2019-03-13T21:48:00.277Z,100740.64
2019-03-13T21:50:29.467Z,100749.80
2019-03-13T21:52:58.667Z,100749.80
2019-03-13T21:55:28.190Z,100745.25
2019-03-13T21:57:57.434Z,100734.69
2019-03-13T22:00:27.758Z,100740.77
2019-03-13T22:02:56.975Z,100733.91
2019-03-13T22:05:27.351Z,100736.02
2019-03-13T22:07:56.917Z,100734.91
2019-03-13T22:10:26.089Z,100731.77
2019-03-13T22:12:55.275Z,100735.16
2019-03-13T22:15:24.879Z,100737.25
2019-03-13T22:17:54.071Z,100744.19
2019-03-13T22:20:23.287Z,100747.33
2019-03-13T22:22:52.446Z,100755.13
2019-03-13T22:25:21.612Z,100740.30
2019-03-13T22:27:50.876Z,100758.39
2019-03-13T22:30:28.566Z,100760.13
2019-03-13T22:32:56.100Z,100767.27
2019-03-13T22:35:25.363Z,100766.80
2019-03-13T22:37:54.777Z,100760.60
2019-03-13T22:40:23.976Z,100760.60
2019-03-13T22:42:53.172Z,100764.87
2019-03-13T22:45:22.517Z,100764.01
2019-03-13T22:47:51.738Z,100762.52
2019-03-13T22:50:22.039Z,100774.27
2019-03-13T22:52:51.203Z,100779.88
2019-03-13T22:55:20.647Z,100770.92
2019-03-13T22:57:49.891Z,100778.48
2019-03-13T23:00:41.835Z,100790.50
2019-03-13T23:03:11.645Z,100799.58
2019-03-13T23:05:40.812Z,100784.15
2019-03-13T23:08:09.984Z,100791.98
2019-03-13T23:10:39.310Z,100785.95
2019-03-13T23:13:08.665Z,100782.87
2019-03-13T23:15:38.069Z,100799.58
2019-03-13T23:18:07.373Z,100784.20
2019-03-13T23:20:36.565Z,100787.23
2019-03-13T23:23:05.806Z,100787.09
2019-03-13T23:25:35.006Z,100787.47
2019-03-13T23:28:04.527Z,100783.86
2019-03-13T23:30:33.691Z,100784.33
2019-03-13T23:33:02.873Z,100793.67
2019-03-13T23:35:32.053Z,100792.28
2019-03-13T23:38:01.393Z,100787.75
2019-03-13T23:40:30.571Z,100788.55
2019-03-13T23:42:59.809Z,100784.27
2019-03-13T23:45:29.069Z,100793.94
2019-03-13T23:47:58.254Z,100793.88
2019-03-13T23:50:27.443Z,100794.36
2019-03-13T23:52:56.616Z,100795.84
2019-03-13T23:55:25.826Z,100798.36
2019-03-13T23:57:55.002Z,100795.04
